createdAt,value
2022-12-27T00:00:28.994Z,3.35
2022-12-27T00:05:31.395Z,4.75
2022-12-27T00:10:33.757Z,2.20
2022-12-27T00:15:36.721Z,2.25
2022-12-27T00:20:38.840Z,2.67
2022-12-27T00:25:40.971Z,3.30
2022-12-27T00:30:43.196Z,3.70
2022-12-27T00:35:46.249Z,4.22
2022-12-27T00:40:48.667Z,2.80
2022-12-27T00:45:51.045Z,3.35
2022-12-27T00:51:12.449Z,3.40
2022-12-27T00:56:20.331Z,2.65
2022-12-27T01:01:24.673Z,2.90
2022-12-27T01:06:29.573Z,1.45
2022-12-27T01:11:32.121Z,4.82
2022-12-27T01:16:34.641Z,3.08
2022-12-27T01:21:37.873Z,1.05
2022-12-27T01:26:40.009Z,3.38
2022-12-27T01:31:42.200Z,1.95
2022-12-27T01:36:45.020Z,1.48
2022-12-27T01:42:05.929Z,1.08
2022-12-27T01:47:33.039Z,2.40
2022-12-27T01:53:08.780Z,2.13
2022-12-27T01:58:19.276Z,1.90
2022-12-27T02:03:26.295Z,3.00
2022-12-27T02:08:45.236Z,3.20
2022-12-27T02:13:47.479Z,2.67
2022-12-27T02:18:49.734Z,3.58
2022-12-27T02:24:13.424Z,1.90
2022-12-27T02:29:38.439Z,1.58
2022-12-27T02:34:54.363Z,1.77
2022-12-27T02:40:18.630Z,1.80
2022-12-27T02:45:46.872Z,1.88
2022-12-27T02:51:10.882Z,2.33
2022-12-27T02:56:58.287Z,1.65
2022-12-27T03:02:19.161Z,2.20
2022-12-27T03:07:45.860Z,1.67
2022-12-27T03:13:18.001Z,1.48
2022-12-27T03:18:36.004Z,1.48
2022-12-27T03:23:59.223Z,1.90
2022-12-27T03:29:21.441Z,1.15
2022-12-27T03:34:36.061Z,1.75
2022-12-27T03:39:46.886Z,1.75
2022-12-27T03:44:49.672Z,1.60
2022-12-27T03:50:03.366Z,3.03
2022-12-27T03:55:06.320Z,1.23
2022-12-27T04:00:09.174Z,3.10
2022-12-27T04:05:18.471Z,1.98
2022-12-27T04:10:39.215Z,2.63
2022-12-27T04:16:00.134Z,4.07
2022-12-27T04:21:20.661Z,3.53
2022-12-27T04:26:41.111Z,4.13
2022-12-27T04:32:01.561Z,1.40
2022-12-27T04:37:04.039Z,5.47
2022-12-27T04:42:24.835Z,1.08
2022-12-27T04:47:45.978Z,1.48
2022-12-27T04:53:07.326Z,1.73
2022-12-27T04:58:09.690Z,2.90
2022-12-27T05:03:15.228Z,1.38
2022-12-27T05:08:38.550Z,2.40
2022-12-27T05:13:59.750Z,1.75
2022-12-27T05:19:02.194Z,2.15
2022-12-27T05:24:23.572Z,2.15
2022-12-27T05:29:25.645Z,0.98
2022-12-27T05:34:27.713Z,1.73
2022-12-27T05:39:29.796Z,2.25
2022-12-27T05:44:31.927Z,2.20
2022-12-27T05:49:34.031Z,2.42
2022-12-27T05:54:36.125Z,1.63
2022-12-27T05:59:38.346Z,1.33
2022-12-27T06:04:40.457Z,1.50
2022-12-27T06:09:42.891Z,2.05
2022-12-27T06:14:45.001Z,0.95
2022-12-27T06:19:52.452Z,2.33
2022-12-27T06:24:57.426Z,1.52
2022-12-27T06:29:59.536Z,2.75
2022-12-27T06:35:01.681Z,2.28
2022-12-27T06:40:04.241Z,3.45
2022-12-27T06:45:07.201Z,2.28
2022-12-27T06:50:09.677Z,0.60
2022-12-27T06:55:11.792Z,1.05
2022-12-27T07:00:14.607Z,1.58
2022-12-27T07:05:16.816Z,2.10
2022-12-27T07:10:19.041Z,2.63
2022-12-27T07:15:21.102Z,1.83
2022-12-27T07:20:23.175Z,3.38
2022-12-27T07:25:25.329Z,1.80
2022-12-27T07:30:29.525Z,1.63
2022-12-27T07:35:31.568Z,2.65
2022-12-27T07:40:36.950Z,4.35
2022-12-27T07:45:39.094Z,2.95
2022-12-27T07:50:41.260Z,4.55
2022-12-27T07:55:43.475Z,4.47
2022-12-27T08:00:48.232Z,2.92
2022-12-27T08:05:54.062Z,2.00
2022-12-27T08:11:00.566Z,3.40
2022-12-27T08:16:07.815Z,3.65
2022-12-27T08:21:09.972Z,1.15
2022-12-27T08:26:12.145Z,2.78
2022-12-27T08:31:14.848Z,3.42
2022-12-27T08:41:39.551Z,2.88
2022-12-27T08:46:41.682Z,2.05
2022-12-27T08:51:43.753Z,2.22
2022-12-27T08:56:46.044Z,4.10
2022-12-27T09:01:48.269Z,2.05
2022-12-27T09:06:50.508Z,2.33
2022-12-27T09:11:52.641Z,2.53
2022-12-27T09:16:54.768Z,3.88
2022-12-27T09:21:56.844Z,1.73
2022-12-27T09:26:58.917Z,2.10
2022-12-27T09:32:01.010Z,2.53
2022-12-27T09:37:03.162Z,3.75
2022-12-27T09:47:56.284Z,5.20
2022-12-27T09:53:27.202Z,7.03
2022-12-27T09:58:45.848Z,4.00
2022-12-27T10:03:48.431Z,1.48
2022-12-27T10:08:59.602Z,3.03
2022-12-27T10:14:35.716Z,4.40
2022-12-27T10:20:01.912Z,5.85
2022-12-27T10:25:10.628Z,3.40
2022-12-27T10:30:19.974Z,4.28
2022-12-27T10:35:24.302Z,5.18
2022-12-27T10:40:39.403Z,4.47
2022-12-27T10:45:42.737Z,2.95
2022-12-27T10:50:56.222Z,4.13
2022-12-27T10:56:15.256Z,5.43
2022-12-27T11:01:26.363Z,4.53
2022-12-27T11:06:28.724Z,4.88
2022-12-27T11:11:30.976Z,3.15
2022-12-27T11:16:36.235Z,4.35
2022-12-27T11:21:40.921Z,4.55
2022-12-27T11:26:58.189Z,3.97
2022-12-27T11:32:06.949Z,4.75
2022-12-27T11:37:15.662Z,4.68
2022-12-27T11:42:42.834Z,6.53
2022-12-27T11:47:51.994Z,4.22
2022-12-27T11:53:21.006Z,4.22
2022-12-27T11:58:45.618Z,5.25
2022-12-27T12:04:18.565Z,5.07
2022-12-27T12:09:30.549Z,6.18
2022-12-27T12:15:06.323Z,3.88
2022-12-27T12:20:48.734Z,2.73
2022-12-27T12:26:13.580Z,5.85
2022-12-27T12:31:43.184Z,4.15
2022-12-27T12:37:05.510Z,6.03
2022-12-27T12:42:37.893Z,6.50
2022-12-27T12:47:52.273Z,4.03
2022-12-27T12:53:20.790Z,6.68
2022-12-27T12:58:37.606Z,4.63
2022-12-27T13:03:58.500Z,6.45
2022-12-27T13:09:15.497Z,5.30
2022-12-27T13:14:34.887Z,5.00
2022-12-27T13:20:01.800Z,4.60
2022-12-27T13:25:41.490Z,4.05
2022-12-27T13:30:49.680Z,8.35
2022-12-27T13:36:15.760Z,6.13
2022-12-27T13:41:30.068Z,5.10
2022-12-27T13:46:53.701Z,5.88
2022-12-27T13:52:08.603Z,6.85
2022-12-27T13:57:10.645Z,6.35
2022-12-27T14:02:37.620Z,6.22
2022-12-27T14:08:10.814Z,7.45
2022-12-27T14:13:15.751Z,10.13
2022-12-27T14:18:42.184Z,5.33
2022-12-27T14:23:56.440Z,18.70
2022-12-27T14:29:24.779Z,8.32
2022-12-27T14:34:45.570Z,3.53
2022-12-27T14:39:59.621Z,5.95
2022-12-27T14:45:23.341Z,6.45
2022-12-27T14:50:41.125Z,3.75
2022-12-27T14:55:54.907Z,10.63
2022-12-27T15:01:03.369Z,11.30
2022-12-27T15:06:31.745Z,7.75
2022-12-27T15:12:10.836Z,6.90
2022-12-27T15:17:33.469Z,4.30
2022-12-27T15:23:13.788Z,6.85
2022-12-27T15:28:34.634Z,6.22
2022-12-27T15:34:04.350Z,11.77
2022-12-27T15:39:26.905Z,8.85
2022-12-27T15:44:38.752Z,6.38
2022-12-27T15:50:15.657Z,7.93
2022-12-27T15:55:38.313Z,7.38
2022-12-27T16:00:41.205Z,7.65
2022-12-27T16:05:49.501Z,7.03
2022-12-27T16:10:51.987Z,6.88
2022-12-27T16:15:55.368Z,9.40
2022-12-27T16:21:02.150Z,5.97
2022-12-27T16:26:27.641Z,6.40
2022-12-27T16:31:37.903Z,9.85
2022-12-27T16:36:47.934Z,7.18
2022-12-27T16:41:55.989Z,7.40
2022-12-27T16:47:00.864Z,7.70
2022-12-27T16:52:26.050Z,9.93
2022-12-27T16:57:28.129Z,11.07
2022-12-27T17:02:40.026Z,4.30
2022-12-27T17:07:55.322Z,8.93
2022-12-27T17:12:59.760Z,5.15
2022-12-27T17:18:15.744Z,6.28
2022-12-27T17:23:17.984Z,6.30
2022-12-27T17:28:30.663Z,6.47
2022-12-27T17:33:40.026Z,7.50
2022-12-27T17:38:54.365Z,12.45
2022-12-27T17:44:24.181Z,6.05
2022-12-27T17:49:31.881Z,9.27
2022-12-27T17:54:52.680Z,10.38
2022-12-27T17:59:55.916Z,9.00
2022-12-27T18:05:02.814Z,11.00
2022-12-27T18:10:08.136Z,9.35
2022-12-27T18:15:18.246Z,7.15
2022-12-27T18:20:40.911Z,9.02
2022-12-27T18:25:45.666Z,10.68
2022-12-27T18:31:29.729Z,10.35
2022-12-27T18:36:51.980Z,7.38
2022-12-27T18:41:55.778Z,8.40
2022-12-27T18:47:01.802Z,9.77
2022-12-27T18:52:15.408Z,9.73
2022-12-27T18:57:37.812Z,9.57
2022-12-27T19:02:40.560Z,11.60
2022-12-27T19:07:42.911Z,12.57
2022-12-27T19:12:45.752Z,12.07
2022-12-27T19:17:50.304Z,12.43
2022-12-27T19:22:55.791Z,12.35
2022-12-27T19:27:59.005Z,11.25
2022-12-27T19:33:03.140Z,9.80
2022-12-27T19:38:05.243Z,13.50
2022-12-27T19:43:07.311Z,12.52
2022-12-27T19:48:10.366Z,10.85
2022-12-27T19:53:16.260Z,10.48
2022-12-27T19:58:24.509Z,13.15
2022-12-27T20:03:27.135Z,12.45
2022-12-27T20:08:37.986Z,16.80
2022-12-27T20:13:40.109Z,15.00
2022-12-27T20:18:43.041Z,13.23
2022-12-27T20:23:45.612Z,17.88
2022-12-27T20:28:48.616Z,18.23
2022-12-27T20:33:55.334Z,13.35
2022-12-27T20:38:58.493Z,13.00
2022-12-27T20:44:00.596Z,18.75
2022-12-27T20:49:03.315Z,13.32
2022-12-27T20:54:05.554Z,20.85
2022-12-27T20:59:07.633Z,12.73
2022-12-27T21:04:09.787Z,11.38
2022-12-27T21:09:12.812Z,10.15
2022-12-27T21:14:14.880Z,16.90
2022-12-27T21:19:16.925Z,14.52
2022-12-27T21:24:18.970Z,17.50
2022-12-27T21:29:21.054Z,13.02
2022-12-27T21:34:23.116Z,12.88
2022-12-27T21:39:25.458Z,23.60
2022-12-27T21:44:28.370Z,16.20
2022-12-27T21:49:30.878Z,16.52
2022-12-27T21:54:33.022Z,10.13
2022-12-27T21:59:35.176Z,11.82
2022-12-27T22:04:37.242Z,11.82
2022-12-27T22:09:39.356Z,12.98
2022-12-27T22:14:41.448Z,12.13
2022-12-27T22:19:43.593Z,12.93
2022-12-27T22:24:45.731Z,9.27
2022-12-27T22:29:47.858Z,14.73
2022-12-27T22:34:49.952Z,16.70
2022-12-27T22:39:52.039Z,13.20
2022-12-27T22:44:54.133Z,11.20
2022-12-27T22:49:56.287Z,13.90
2022-12-27T22:55:04.870Z,14.35
2022-12-27T23:00:14.316Z,12.85
2022-12-27T23:05:16.470Z,9.20
2022-12-27T23:10:18.675Z,14.63
2022-12-27T23:15:20.822Z,11.98
2022-12-27T23:20:23.027Z,12.95
2022-12-27T23:25:25.563Z,9.38
2022-12-27T23:30:27.752Z,8.90
2022-12-27T23:35:29.975Z,12.90
2022-12-27T23:40:32.915Z,9.40
2022-12-27T23:45:35.043Z,9.13
2022-12-27T23:50:37.177Z,7.88
2022-12-27T23:55:39.488Z,10.93
